Time;durP1;ratioP1;P1;durP2;ratioP2;P2;SDS_P1;SDS_P2;PMS_P1;PMS_P2;Temp;Humidity;BMP_temperature;BMP_pressure;BME280_temperature;BME280_humidity;BME280_pressure;Samples;Min_cycle;Max_cycle;Signal;HPM_P1;HPM_P2
2023/01/01 00:00:43;;;;;;;49.72;30.20;;;;;;;15.42;64.86;100362.69;4983573;28;20046;-63
2023/01/01 00:03:11;;;;;;;33.92;19.00;;;;;;;15.41;64.08;100376.09;4985343;28;20054;-62
2023/01/01 00:05:38;;;;;;;33.38;21.45;;;;;;;15.46;64.38;100371.25;4981355;28;20179;-64
2023/01/01 00:08:06;;;;;;;30.13;18.17;;;;;;;15.46;64.21;100381.84;4985678;28;20408;-64
2023/01/01 00:10:33;;;;;;;29.35;17.08;;;;;;;15.45;63.99;100361.63;4984980;28;20072;-66
2023/01/01 00:13:00;;;;;;;25.35;15.10;;;;;;;15.41;63.42;100378.75;4985424;28;20054;-64
2023/01/01 00:15:27;;;;;;;26.52;15.90;;;;;;;15.42;63.78;100385.72;4991302;28;20046;-65
2023/01/01 00:17:56;;;;;;;24.50;14.68;;;;;;;15.43;63.69;100371.50;4983117;28;20039;-61
2023/01/01 00:20:24;;;;;;;25.77;15.60;;;;;;;15.35;63.76;100393.34;4984887;28;20707;-65
2023/01/01 00:22:59;;;;;;;23.75;13.35;;;;;;;15.37;63.66;100372.84;4985065;28;20146;-62
2023/01/01 00:25:26;;;;;;;19.63;12.18;;;;;;;15.37;63.94;100361.41;4981437;28;20046;-64
2023/01/01 00:27:54;;;;;;;21.80;11.07;;;;;;;15.35;64.12;100395.16;4993470;28;20129;-63
2023/01/01 00:30:23;;;;;;;24.38;11.10;;;;;;;15.33;63.29;100375.88;4988087;28;20042;-62
2023/01/01 00:32:50;;;;;;;16.38;8.23;;;;;;;15.34;63.19;100394.31;4983120;28;20158;-63
2023/01/01 00:35:25;;;;;;;15.10;8.43;;;;;;;15.34;62.76;100378.41;4979363;28;20056;-64
2023/01/01 00:37:53;;;;;;;13.48;8.20;;;;;;;15.36;62.68;100400.34;4987933;28;20069;-63
2023/01/01 00:40:20;;;;;;;11.65;6.75;;;;;;;15.38;62.13;100394.91;4988052;28;20068;-63
2023/01/01 00:42:47;;;;;;;12.57;6.18;;;;;;;15.36;61.32;100378.28;4988543;28;20068;-64
2023/01/01 00:45:14;;;;;;;11.35;5.65;;;;;;;15.35;61.09;100382.72;4990275;28;20058;-66
2023/01/01 00:47:48;;;;;;;16.27;5.85;;;;;;;15.38;61.98;100386.94;4993834;28;20046;-63
2023/01/01 00:50:15;;;;;;;14.93;5.80;;;;;;;15.36;60.98;100384.44;4986629;28;20060;-63
2023/01/01 00:52:43;;;;;;;8.45;4.18;;;;;;;15.35;60.81;100393.34;4993614;28;20046;-66
2023/01/01 00:55:10;;;;;;;14.15;4.78;;;;;;;15.35;60.21;100382.72;4973868;28;20058;-64
2023/01/01 00:57:37;;;;;;;11.30;4.70;;;;;;;15.33;60.09;100383.84;4986866;28;20050;-64
2023/01/01 01:00:06;;;;;;;13.57;4.82;;;;;;;15.37;61.16;100374.66;4991853;28;21969;-65
2023/01/01 01:02:33;;;;;;;11.75;4.32;;;;;;;15.36;61.03;100383.59;4984998;28;20050;-64
2023/01/01 01:05:02;;;;;;;8.25;4.55;;;;;;;15.31;60.04;100397.25;4982718;28;20050;-63
2023/01/01 01:07:35;;;;;;;11.23;4.63;;;;;;;15.34;59.84;100401.44;4988501;28;20063;-65
2023/01/01 01:10:03;;;;;;;10.32;4.25;;;;;;;15.32;60.07;100400.72;4986491;28;20141;-65
2023/01/01 01:12:33;;;;;;;8.38;4.57;;;;;;;15.28;59.83;100410.75;4985845;28;20054;-62
2023/01/01 01:15:00;;;;;;;9.55;4.05;;;;;;;15.27;59.41;100403.75;4985848;28;20168;-63
2023/01/01 01:17:28;;;;;;;8.93;3.70;;;;;;;15.28;59.71;100407.25;4993002;28;20062;-65
2023/01/01 01:19:55;;;;;;;9.77;3.88;;;;;;;15.25;59.35;100404.84;4986354;28;20046;-65
2023/01/01 01:22:22;;;;;;;13.60;4.70;;;;;;;15.24;59.44;100392.56;4981627;28;20054;-63
2023/01/01 01:24:56;;;;;;;15.40;5.72;;;;;;;15.22;59.34;100399.78;4983698;28;20046;-61
2023/01/01 01:27:23;;;;;;;9.82;4.53;;;;;;;15.23;59.85;100402.31;4978271;28;20042;-63
2023/01/01 01:29:51;;;;;;;13.18;5.55;;;;;;;15.22;59.37;100407.72;4985701;28;20064;-63
2023/01/01 01:32:18;;;;;;;13.50;4.60;;;;;;;15.20;59.65;100406.06;4984647;28;20057;-63
2023/01/01 01:34:46;;;;;;;13.00;4.97;;;;;;;15.17;59.73;100401.03;4983328;28;20049;-62
2023/01/01 01:37:13;;;;;;;12.13;4.32;;;;;;;15.16;59.15;100417.03;4986512;28;20064;-61
2023/01/01 01:39:41;;;;;;;10.50;3.75;;;;;;;15.19;59.40;100420.28;4982808;28;20141;-65
2023/01/01 01:42:16;;;;;;;11.52;4.03;;;;;;;15.17;58.87;100410.75;4986413;28;20141;-64
2023/01/01 01:44:48;;;;;;;9.38;4.68;;;;;;;15.19;58.97;100416.81;4986249;28;20065;-65
2023/01/01 01:47:24;;;;;;;88.63;60.90;;;;;;;15.26;58.78;100414.47;4989610;28;20523;-63
2023/01/01 01:49:55;;;;;;;34.17;18.55;;;;;;;15.33;59.19;100411.22;4988319;28;20046;-65
2023/01/01 01:52:23;;;;;;;17.38;4.82;;;;;;;15.35;58.38;100413.72;4974243;28;20060;-63
2023/01/01 01:54:50;;;;;;;15.38;7.20;;;;;;;15.36;58.17;100412.78;4972758;28;20086;-61
2023/01/01 01:57:18;;;;;;;15.77;5.32;;;;;;;15.34;58.27;100412.03;4989716;28;20061;-63
2023/01/01 01:59:47;;;;;;;11.85;4.28;;;;;;;15.28;57.47;100409.91;4982773;28;20562;-66
2023/01/01 02:02:26;;;;;;;9.35;3.90;;;;;;;15.27;57.40;100409.06;4982698;28;20534;-67
2023/01/01 02:04:53;;;;;;;7.65;4.18;;;;;;;15.26;58.74;100396.75;4980510;28;20054;-64
2023/01/01 02:07:21;;;;;;;11.77;5.47;;;;;;;15.24;57.81;100408.47;4986540;28;20045;-64
2023/01/01 02:09:49;;;;;;;9.25;5.03;;;;;;;15.24;57.56;100422.56;4962908;28;20061;-66
2023/01/01 02:12:16;;;;;;;9.93;4.60;;;;;;;15.23;57.24;100412.94;4974417;28;20141;-65
2023/01/01 02:14:43;;;;;;;9.07;4.55;;;;;;;15.22;57.27;100419.22;4981253;28;20052;-64
2023/01/01 02:17:17;;;;;;;11.48;5.18;;;;;;;15.22;57.54;100421.00;4987993;28;20145;-64
2023/01/01 02:19:59;;;;;;;12.60;4.43;;;;;;;15.25;57.80;100418.09;4984343;28;20054;-64
2023/01/01 02:22:35;;;;;;;11.98;4.57;;;;;;;15.29;56.83;100432.81;4991642;28;20065;-65
2023/01/01 02:25:23;;;;;;;10.07;4.28;;;;;;;15.25;57.09;100413.63;4987142;28;20269;-63
2023/01/01 02:28:04;;;;;;;10.30;4.20;;;;;;;15.27;56.99;100414.38;4989356;28;20068;-66
2023/01/01 02:30:32;;;;;;;7.78;3.97;;;;;;;15.26;56.62;100415.31;4970918;28;20145;-65
2023/01/01 02:33:02;;;;;;;11.25;4.30;;;;;;;15.26;56.61;100412.66;4986429;28;20462;-65
2023/01/01 02:35:33;;;;;;;9.43;4.55;;;;;;;15.20;56.68;100415.81;4985125;28;20042;-66
2023/01/01 02:38:22;;;;;;;12.20;4.80;;;;;;;15.24;56.90;100405.81;4983141;28;20132;-66
2023/01/01 02:40:53;;;;;;;16.27;5.00;;;;;;;15.16;56.37;100415.22;4982712;28;20445;-66
2023/01/01 02:43:21;;;;;;;16.33;4.72;;;;;;;15.17;56.42;100411.63;4985479;28;20050;-67
2023/01/01 02:45:54;;;;;;;12.45;5.22;;;;;;;15.16;56.73;100403.78;4986586;28;20133;-65
2023/01/01 02:48:46;;;;;;;22.88;6.00;;;;;;;15.08;56.83;100419.47;4972748;28;20681;-65
2023/01/01 02:51:13;;;;;;;15.40;5.72;;;;;;;15.11;57.23;100411.28;4988070;28;20165;-65
2023/01/01 02:53:54;;;;;;;13.63;5.07;;;;;;;15.06;57.09;100413.47;4987106;28;20064;-65
2023/01/01 02:56:41;;;;;;;10.57;4.32;;;;;;;15.06;56.92;100401.03;4994277;28;20133;-64
2023/01/01 03:02:49;;;;;;;9.77;4.53;;;;;;;15.09;57.21;100402.63;4970235;28;20070;-65
2023/01/01 03:05:34;;;;;;;10.27;4.70;;;;;;;15.05;56.91;100404.66;4987124;28;20132;-64
2023/01/01 03:08:15;;;;;;;17.77;4.88;;;;;;;15.06;56.62;100410.81;4990381;28;20137;-62
2023/01/01 03:11:06;;;;;;;12.15;5.88;;;;;;;15.04;56.72;100413.59;4988384;28;20042;-64
2023/01/01 03:13:43;;;;;;;12.93;4.47;;;;;;;15.06;56.47;100405.50;4985911;28;20168;-64
2023/01/01 03:16:30;;;;;;;12.20;4.45;;;;;;;15.03;57.45;100419.84;4976005;28;20061;-63
2023/01/01 03:19:10;;;;;;;12.65;4.90;;;;;;;15.02;56.46;100410.22;4994792;28;20086;-63
2023/01/01 03:21:42;;;;;;;13.15;4.75;;;;;;;15.01;56.88;100428.91;4986527;28;20065;-63
2023/01/01 03:24:22;;;;;;;13.38;4.97;;;;;;;14.95;56.87;100424.94;4992388;28;20054;-64
2023/01/01 03:26:53;;;;;;;10.15;4.32;;;;;;;14.95;56.52;100422.28;4976639;28;20064;-64
2023/01/01 03:29:22;;;;;;;6.88;4.70;;;;;;;14.96;57.20;100415.19;4998327;28;20390;-64
2023/01/01 03:31:52;;;;;;;23.77;4.82;;;;;;;14.98;56.89;100407.94;5000953;28;20157;-63
2023/01/01 03:34:24;;;;;;;10.60;4.90;;;;;;;14.96;56.70;100418.66;4985183;28;20145;-62
2023/01/01 03:36:55;;;;;;;9.57;3.83;;;;;;;14.99;56.98;100415.75;4988899;28;20046;-64
2023/01/01 03:39:26;;;;;;;7.88;4.13;;;;;;;14.97;56.89;100419.50;4974645;28;20113;-65
2023/01/01 03:42:11;;;;;;;9.20;3.83;;;;;;;14.95;57.20;100406.38;4995296;28;20121;-64
2023/01/01 03:44:46;;;;;;;10.88;4.30;;;;;;;14.92;57.38;100412.75;4997855;28;20058;-63
2023/01/01 03:47:13;;;;;;;13.52;4.13;;;;;;;14.89;56.97;100402.41;4992573;28;20050;-67
2023/01/01 03:49:41;;;;;;;14.65;4.47;;;;;;;14.87;57.13;100406.16;4985609;28;20136;-65
2023/01/01 03:52:43;;;;;;;14.23;4.55;;;;;;;14.85;57.51;100418.66;4978645;28;20488;-64
2023/01/01 03:55:10;;;;;;;9.52;3.97;;;;;;;14.79;57.14;100441.22;4986096;28;20058;-64
2023/01/01 03:57:59;;;;;;;9.90;4.38;;;;;;;14.80;57.58;100442.06;4991883;28;20537;-64
2023/01/01 04:00:31;;;;;;;9.65;3.78;;;;;;;14.76;57.80;100433.50;4984378;28;20148;-63
2023/01/01 04:03:13;;;;;;;10.00;4.32;;;;;;;14.75;58.20;100460.13;4992156;28;20087;-68
2023/01/01 04:05:41;;;;;;;10.32;5.15;;;;;;;14.69;57.75;100446.41;4980864;28;20086;-67
2023/01/01 04:08:10;;;;;;;8.10;4.20;;;;;;;14.67;58.02;100447.47;4993388;28;20054;-66
2023/01/01 04:10:43;;;;;;;9.55;4.63;;;;;;;14.66;57.47;100477.59;4981913;28;20586;-64
2023/01/01 04:13:10;;;;;;;13.40;4.57;;;;;;;14.70;57.54;100460.50;4986458;28;20075;-66
2023/01/01 04:15:37;;;;;;;9.15;4.78;;;;;;;14.71;57.58;100469.28;4987170;28;20066;-65
2023/01/01 04:18:05;;;;;;;11.30;4.63;;;;;;;14.71;57.90;100474.56;4993945;28;20054;-65
2023/01/01 04:20:32;;;;;;;12.32;4.53;;;;;;;14.71;58.12;100463.97;4983462;28;20048;-64
2023/01/01 04:23:00;;;;;;;11.98;4.97;;;;;;;14.66;57.41;100467.81;4989348;28;20049;-67
2023/01/01 04:25:28;;;;;;;11.52;4.43;;;;;;;14.67;57.51;100472.16;4990180;28;20137;-64
2023/01/01 04:27:57;;;;;;;12.73;4.88;;;;;;;14.71;57.95;100471.94;4989982;28;20197;-66
2023/01/01 04:30:25;;;;;;;12.80;4.38;;;;;;;14.68;57.98;100465.06;4981794;28;20082;-63
2023/01/01 04:32:54;;;;;;;9.23;4.15;;;;;;;14.65;57.50;100463.50;4987971;28;20073;-65
2023/01/01 04:35:21;;;;;;;9.68;4.55;;;;;;;14.64;57.77;100480.38;4987323;28;20418;-65
2023/01/01 04:37:49;;;;;;;7.15;4.10;;;;;;;14.63;57.89;100478.69;4987634;28;20274;-62
2023/01/01 04:40:16;;;;;;;8.88;3.90;;;;;;;14.58;58.02;100483.47;4980005;28;20054;-65
2023/01/01 04:42:43;;;;;;;17.38;5.13;;;;;;;14.58;58.06;100486.13;4977438;28;20076;-65
2023/01/01 04:45:13;;;;;;;10.02;4.47;;;;;;;14.57;57.91;100476.50;4982222;28;20141;-64
2023/01/01 04:47:41;;;;;;;12.95;4.40;;;;;;;14.56;57.93;100498.66;4988509;28;20507;-65
2023/01/01 04:50:09;;;;;;;10.55;5.30;;;;;;;14.53;58.16;100490.09;4980284;28;20046;-62
2023/01/01 04:52:36;;;;;;;11.88;5.95;;;;;;;14.53;57.54;100479.50;4986761;28;20054;-65
2023/01/01 04:55:04;;;;;;;18.70;6.40;;;;;;;14.50;57.85;100491.19;4969928;28;20064;-64
2023/01/01 04:57:31;;;;;;;15.65;6.63;;;;;;;14.52;57.98;100477.81;4987976;28;20055;-62
2023/01/01 04:59:58;;;;;;;12.93;5.45;;;;;;;14.51;57.97;100487.59;4983968;28;20494;-60
2023/01/01 05:02:25;;;;;;;11.50;5.03;;;;;;;14.54;58.41;100487.31;4987275;28;20068;-64
2023/01/01 05:04:53;;;;;;;14.98;4.72;;;;;;;14.53;58.00;100482.16;4977524;28;20176;-64
2023/01/01 05:07:20;;;;;;;12.02;5.35;;;;;;;14.49;57.95;100486.84;4982294;28;20534;-65
2023/01/01 05:09:47;;;;;;;12.73;4.32;;;;;;;14.52;58.82;100494.56;4991244;28;20445;-65
2023/01/01 05:12:15;;;;;;;14.60;4.13;;;;;;;14.48;58.26;100490.47;4990778;28;20060;-65
2023/01/01 05:14:42;;;;;;;8.00;4.35;;;;;;;14.44;57.96;100491.63;4996132;28;20046;-65
2023/01/01 05:17:09;;;;;;;11.13;3.83;;;;;;;14.45;58.46;100495.94;5000404;28;20129;-68
2023/01/01 05:19:36;;;;;;;9.43;4.97;;;;;;;14.43;58.47;100488.13;4995660;28;20068;-65
2023/01/01 05:22:04;;;;;;;10.35;3.22;;;;;;;14.40;58.23;100493.66;5000149;28;20080;-63
2023/01/01 05:24:36;;;;;;;8.75;3.85;;;;;;;14.39;58.60;100491.13;4992699;28;20137;-64
2023/01/01 05:27:04;;;;;;;10.60;3.08;;;;;;;14.35;58.36;100492.34;4996192;28;20540;-64
2023/01/01 05:29:31;;;;;;;11.52;4.15;;;;;;;14.39;58.76;100496.44;4995875;28;20104;-67
2023/01/01 05:31:58;;;;;;;6.80;3.20;;;;;;;14.40;58.33;100504.25;4993721;28;20161;-65
2023/01/01 05:34:26;;;;;;;9.80;4.22;;;;;;;14.40;58.17;100511.34;4988946;28;20096;-64
2023/01/01 05:36:53;;;;;;;15.48;4.13;;;;;;;14.37;58.29;100507.16;4965539;28;20061;-62
2023/01/01 05:39:20;;;;;;;8.57;3.22;;;;;;;14.36;58.22;100496.66;4993979;28;20535;-64
2023/01/01 05:41:48;;;;;;;8.57;3.80;;;;;;;14.33;58.23;100513.66;4984456;28;20125;-66
2023/01/01 05:44:16;;;;;;;11.63;3.75;;;;;;;14.37;58.12;100509.81;4986068;28;20061;-64
2023/01/01 05:46:43;;;;;;;10.90;4.35;;;;;;;14.39;58.39;100497.28;4981465;28;20498;-65
2023/01/01 05:49:11;;;;;;;9.45;3.58;;;;;;;14.41;58.40;100499.81;4994282;28;20058;-65
2023/01/01 05:51:38;;;;;;;10.80;2.95;;;;;;;14.35;58.04;100506.41;4994849;28;20046;-67
2023/01/01 05:54:04;;;;;;;9.15;3.00;;;;;;;14.40;58.00;100501.59;4993721;28;20426;-67
2023/01/01 05:56:31;;;;;;;6.82;2.63;;;;;;;14.40;58.19;100503.41;4978976;28;20068;-65
2023/01/01 05:58:59;;;;;;;8.27;2.88;;;;;;;14.42;58.49;100496.22;4987865;28;20058;-67
2023/01/01 06:01:28;;;;;;;6.95;3.13;;;;;;;14.44;58.27;100510.16;4993867;28;20046;-62
2023/01/01 06:03:56;;;;;;;8.23;2.72;;;;;;;14.46;58.38;100524.16;4991589;28;20529;-66
2023/01/01 06:06:27;;;;;;;8.40;3.03;;;;;;;14.47;58.05;100506.44;4992573;28;20045;-64
2023/01/01 06:08:57;;;;;;;7.10;3.00;;;;;;;14.43;58.17;100504.03;4990843;28;20072;-66
2023/01/01 06:11:25;;;;;;;15.05;3.03;;;;;;;14.42;58.48;100510.28;4985662;28;20536;-64
2023/01/01 06:13:54;;;;;;;6.95;2.33;;;;;;;14.43;58.05;100503.19;4987542;28;20061;-63
2023/01/01 06:16:22;;;;;;;9.50;3.33;;;;;;;14.41;58.33;100500.66;4996430;28;20132;-67
2023/01/01 06:18:49;;;;;;;9.10;2.80;;;;;;;14.40;58.01;100506.06;4970246;28;20565;-65
2023/01/01 06:21:19;;;;;;;5.80;2.60;;;;;;;14.43;58.16;100508.47;4994875;28;20649;-64
2023/01/01 06:23:46;;;;;;;6.32;2.55;;;;;;;14.41;58.06;100515.72;4979828;28;20136;-64
2023/01/01 06:26:18;;;;;;;7.72;2.50;;;;;;;14.39;58.13;100525.56;4995782;28;20069;-64
2023/01/01 06:28:45;;;;;;;7.65;3.17;;;;;;;14.38;58.17;100516.78;4989221;28;20056;-66
2023/01/01 06:31:17;;;;;;;5.50;2.97;;;;;;;14.43;58.25;100516.44;4979023;28;20046;-65
2023/01/01 06:33:44;;;;;;;6.25;2.60;;;;;;;14.43;58.38;100529.66;4976985;28;20158;-64
2023/01/01 06:36:13;;;;;;;9.00;3.60;;;;;;;14.43;58.29;100534.97;4990466;28;20086;-65
2023/01/01 06:38:42;;;;;;;9.20;3.38;;;;;;;14.43;58.04;100527.03;4990470;28;20531;-64
2023/01/01 06:41:11;;;;;;;12.68;3.08;;;;;;;14.40;58.38;100529.91;4994317;28;20055;-64
2023/01/01 06:43:39;;;;;;;8.32;3.42;;;;;;;14.44;58.55;100515.47;4990640;28;20050;-63
2023/01/01 06:46:11;;;;;;;5.65;2.30;;;;;;;14.41;58.55;100566.88;4969851;28;20062;-67
2023/01/01 06:48:39;;;;;;;5.57;2.85;;;;;;;14.39;58.35;100531.69;4975892;28;20105;-63
2023/01/01 06:51:12;;;;;;;7.50;3.22;;;;;;;14.37;58.47;100540.75;5000209;28;20039;-65
2023/01/01 06:53:39;;;;;;;10.88;2.90;;;;;;;14.38;58.76;100548.56;4971752;28;20070;-66
2023/01/01 06:56:07;;;;;;;9.43;3.33;;;;;;;14.36;58.66;100547.84;4975629;28;20142;-64
2023/01/01 06:58:34;;;;;;;11.90;3.67;;;;;;;14.34;58.73;100551.56;4995393;28;20117;-65
2023/01/01 07:01:06;;;;;;;13.30;3.33;;;;;;;14.34;58.68;100547.09;4964150;28;20065;-62
2023/01/01 07:03:35;;;;;;;5.35;2.40;;;;;;;14.34;58.46;100552.41;4979547;28;20043;-65
2023/01/01 07:06:03;;;;;;;8.70;3.00;;;;;;;14.35;58.74;100546.13;4985281;28;20050;-64
2023/01/01 07:08:31;;;;;;;6.20;2.83;;;;;;;14.36;58.93;100547.84;4996858;28;20135;-64
2023/01/01 07:10:58;;;;;;;7.05;3.40;;;;;;;14.32;58.72;100561.41;4989768;28;20141;-65
2023/01/01 07:13:26;;;;;;;7.70;2.90;;;;;;;14.32;58.93;100572.88;4998378;28;20623;-64
2023/01/01 07:15:54;;;;;;;8.88;2.60;;;;;;;14.34;58.84;100575.41;4992108;28;20494;-63
2023/01/01 07:18:22;;;;;;;10.05;3.05;;;;;;;14.37;58.67;100567.22;4990959;28;20054;-63
2023/01/01 07:20:57;;;;;;;11.82;3.50;;;;;;;14.35;58.79;100569.97;4983077;28;20137;-64
2023/01/01 07:23:26;;;;;;;14.05;4.30;;;;;;;14.34;58.98;100580.69;5000008;28;20563;-65
2023/01/01 07:25:54;;;;;;;11.25;3.78;;;;;;;14.33;58.90;100581.66;4993174;28;20064;-65
2023/01/01 07:28:22;;;;;;;14.85;3.33;;;;;;;14.35;58.59;100579.72;4957052;28;20130;-65
2023/01/01 07:30:51;;;;;;;9.10;3.80;;;;;;;14.37;58.77;100593.72;4993351;28;20487;-64
2023/01/01 07:33:20;;;;;;;8.98;3.33;;;;;;;14.34;58.67;100605.38;4991122;28;20401;-67
2023/01/01 07:35:48;;;;;;;8.13;3.50;;;;;;;14.37;58.59;100596.34;4973498;28;20073;-64
2023/01/01 07:38:15;;;;;;;14.48;3.63;;;;;;;14.36;58.56;100598.16;4984612;28;20050;-65
2023/01/01 07:40:42;;;;;;;7.40;3.13;;;;;;;14.40;58.75;100598.75;4991660;28;20079;-63
2023/01/01 07:43:11;;;;;;;7.43;3.50;;;;;;;14.42;58.55;100587.09;4979570;28;20061;-65
2023/01/01 07:45:38;;;;;;;5.45;3.45;;;;;;;14.44;58.68;100590.47;4986470;28;20383;-62
2023/01/01 07:48:06;;;;;;;9.05;3.67;;;;;;;14.43;58.53;100615.25;4987640;28;20050;-62
2023/01/01 07:50:34;;;;;;;10.18;3.97;;;;;;;14.41;58.37;100603.97;4988418;28;20149;-67
2023/01/01 07:53:01;;;;;;;12.82;3.70;;;;;;;14.39;58.31;100611.16;4986775;28;20050;-65
2023/01/01 07:55:29;;;;;;;9.65;3.88;;;;;;;14.47;58.68;100633.59;4991708;28;20049;-66
2023/01/01 07:57:56;;;;;;;9.40;3.92;;;;;;;14.42;58.41;100661.25;4987395;28;20133;-64
2023/01/01 08:00:23;;;;;;;10.45;4.07;;;;;;;14.48;58.49;100640.56;4983125;28;20181;-64
2023/01/01 08:02:50;;;;;;;9.40;3.55;;;;;;;14.48;58.47;100652.03;4989388;28;20586;-64
2023/01/01 08:05:18;;;;;;;11.25;4.53;;;;;;;14.49;58.60;100642.28;4987057;28;20051;-65
2023/01/01 08:07:53;;;;;;;10.67;3.67;;;;;;;14.49;58.56;100637.81;4982596;28;20172;-66
2023/01/01 08:10:20;;;;;;;12.75;5.35;;;;;;;14.49;58.38;100637.81;4985157;28;20406;-65
2023/01/01 08:12:47;;;;;;;10.25;4.57;;;;;;;14.53;58.63;100634.00;4992125;28;20133;-66
2023/01/01 08:15:15;;;;;;;6.78;3.78;;;;;;;14.55;58.56;100647.97;4988892;28;20121;-63
2023/01/01 08:17:43;;;;;;;9.02;4.45;;;;;;;14.52;58.36;100637.59;4982373;28;20054;-64
2023/01/01 08:20:13;;;;;;;9.02;3.63;;;;;;;14.55;58.57;100645.34;4967132;28;20443;-64
2023/01/01 08:22:40;;;;;;;10.05;3.72;;;;;;;14.57;58.56;100643.41;4989166;28;20042;-64
2023/01/01 08:25:08;;;;;;;8.32;4.95;;;;;;;14.53;58.54;100635.78;4982377;28;20749;-65
2023/01/01 08:27:35;;;;;;;7.35;3.72;;;;;;;14.57;58.34;100631.97;4986605;28;20055;-65
2023/01/01 08:30:03;;;;;;;11.52;4.13;;;;;;;14.58;58.56;100642.44;4983878;28;20046;-65
2023/01/01 08:32:30;;;;;;;9.27;4.22;;;;;;;14.54;58.56;100651.56;4983151;28;20402;-65
2023/01/01 08:34:57;;;;;;;11.55;4.00;;;;;;;14.58;58.39;100655.69;4976934;28;20414;-64
2023/01/01 08:37:24;;;;;;;13.15;4.80;;;;;;;14.61;58.51;100667.84;4993528;28;20060;-64
2023/01/01 08:39:51;;;;;;;6.50;4.03;;;;;;;14.64;58.28;100672.94;4989621;28;20058;-64
2023/01/01 08:42:19;;;;;;;7.45;4.25;;;;;;;14.63;58.49;100656.19;4993143;28;20570;-64
2023/01/01 08:44:46;;;;;;;10.52;4.13;;;;;;;14.62;58.42;100678.34;4986646;28;20200;-63
2023/01/01 08:47:24;;;;;;;9.93;4.95;;;;;;;14.62;58.59;100664.25;4991114;28;20054;-64
2023/01/01 08:49:52;;;;;;;11.00;3.88;;;;;;;14.64;58.60;100680.88;4992105;28;20050;-65
2023/01/01 08:52:20;;;;;;;10.23;3.95;;;;;;;14.63;58.87;100672.09;4997245;28;20100;-65
2023/01/01 08:54:47;;;;;;;6.80;3.65;;;;;;;14.63;58.65;100685.34;4987484;28;20070;-63
2023/01/01 08:57:14;;;;;;;6.72;3.70;;;;;;;14.64;58.89;100680.88;4991517;28;20835;-63
2023/01/01 08:59:42;;;;;;;7.13;3.80;;;;;;;14.65;58.87;100686.06;4992231;28;20085;-65
2023/01/01 09:02:10;;;;;;;9.93;3.72;;;;;;;14.64;58.88;100683.53;4993303;28;20050;-67
2023/01/01 09:04:39;;;;;;;13.20;4.45;;;;;;;14.63;59.05;100687.13;4994481;28;20122;-65
2023/01/01 09:07:06;;;;;;;7.55;3.63;;;;;;;14.61;58.76;100695.19;4993519;28;20154;-65
2023/01/01 09:09:33;;;;;;;7.18;4.00;;;;;;;14.66;58.94;100695.69;4994861;28;20092;-64
2023/01/01 09:12:04;;;;;;;8.02;3.70;;;;;;;14.69;59.20;100710.53;4994698;28;20422;-64
2023/01/01 09:14:33;;;;;;;10.18;4.20;;;;;;;14.67;58.65;100710.63;4988289;28;20142;-66
2023/01/01 09:17:00;;;;;;;8.63;4.25;;;;;;;14.65;58.98;100711.72;4978690;28;20117;-64
2023/01/01 09:19:28;;;;;;;6.68;3.78;;;;;;;14.67;59.38;100728.34;4984892;28;20451;-66
2023/01/01 09:21:55;;;;;;;9.60;4.00;;;;;;;14.66;59.31;100716.06;4989730;28;20082;-63
2023/01/01 09:24:22;;;;;;;15.00;3.72;;;;;;;14.68;59.17;100725.59;4986278;28;20145;-67
2023/01/01 09:26:50;;;;;;;9.32;4.00;;;;;;;14.72;59.60;100731.47;4985398;28;20332;-63
2023/01/01 09:29:19;;;;;;;6.30;3.92;;;;;;;14.71;59.30;100742.22;4975169;28;20057;-65
2023/01/01 09:31:47;;;;;;;10.07;4.10;;;;;;;14.68;59.35;100741.50;4988795;28;20056;-64
2023/01/01 09:34:16;;;;;;;8.23;3.65;;;;;;;14.69;59.42;100745.81;4987847;28;20073;-61
2023/01/01 09:36:44;;;;;;;10.30;3.75;;;;;;;14.69;59.48;100734.38;4982914;28;20064;-62
2023/01/01 09:39:14;;;;;;;6.32;3.75;;;;;;;14.75;59.17;100736.56;4984574;28;20046;-63
2023/01/01 09:42:16;;;;;;;8.85;3.85;;;;;;;14.78;59.00;100743.44;4990905;28;20058;-63
2023/01/01 09:45:14;;;;;;;9.52;3.95;;;;;;;14.86;59.57;100759.59;4974261;28;20050;-63
2023/01/01 09:47:44;;;;;;;8.65;3.85;;;;;;;14.90;59.15;100732.78;4977733;28;20135;-63
2023/01/01 09:50:21;;;;;;;9.38;3.15;;;;;;;14.92;58.82;100746.75;4963808;28;20053;-62
2023/01/01 09:52:54;;;;;;;5.47;3.10;;;;;;;14.98;59.23;100739.28;4990727;28;20046;-63
2023/01/01 09:55:44;;;;;;;6.88;3.42;;;;;;;14.98;58.76;100740.13;4993897;28;20046;-66
2023/01/01 09:58:12;;;;;;;8.05;3.35;;;;;;;14.97;58.50;100754.34;4970257;28;20057;-64
2023/01/01 10:00:43;;;;;;;6.82;3.72;;;;;;;14.96;58.83;100738.56;4982984;28;20137;-64
2023/01/01 10:03:19;;;;;;;8.07;3.75;;;;;;;15.00;59.07;100738.22;4991902;28;20062;-64
2023/01/01 10:06:01;;;;;;;13.80;3.78;;;;;;;15.05;58.52;100735.22;4987362;28;20487;-63
2023/01/01 10:08:40;;;;;;;7.10;3.00;;;;;;;15.05;58.83;100757.28;4991767;28;20050;-63
2023/01/01 10:11:36;;;;;;;8.98;3.38;;;;;;;15.09;58.29;100753.44;4989984;28;20050;-64
2023/01/01 10:14:31;;;;;;;7.13;3.35;;;;;;;15.16;58.56;100759.09;4982056;28;20045;-61
2023/01/01 10:17:08;;;;;;;10.73;3.22;;;;;;;15.12;58.15;100769.09;4987373;28;20054;-63
2023/01/01 10:19:53;;;;;;;13.82;3.92;;;;;;;15.20;58.83;100774.66;4990133;28;20066;-63
2023/01/01 10:22:25;;;;;;;7.75;2.97;;;;;;;15.24;58.97;100763.84;4988474;28;20596;-64
2023/01/01 10:25:07;;;;;;;8.00;4.00;;;;;;;15.23;58.16;100760.34;4982492;28;20153;-62
2023/01/01 10:27:40;;;;;;;9.02;3.03;;;;;;;15.22;58.44;100766.63;4984742;28;20196;-62
2023/01/01 10:30:19;;;;;;;6.75;3.30;;;;;;;15.18;58.74;100760.69;4993029;28;20068;-63
2023/01/01 10:32:49;;;;;;;11.73;3.80;;;;;;;15.18;58.70;100759.84;4990056;28;20046;-62
2023/01/01 10:35:18;;;;;;;4.65;2.80;;;;;;;15.17;58.72;100777.56;4987914;28;20529;-66
2023/01/01 10:37:51;;;;;;;6.32;2.88;;;;;;;15.20;58.78;100779.97;4975380;28;20077;-63
2023/01/01 10:40:21;;;;;;;5.22;2.70;;;;;;;15.24;58.60;100782.41;4990768;28;20050;-66
2023/01/01 10:42:52;;;;;;;5.30;2.80;;;;;;;15.23;58.37;100783.38;4957242;28;20156;-63
2023/01/01 10:45:42;;;;;;;5.80;2.22;;;;;;;15.21;58.88;100788.78;4988029;28;20082;-61
2023/01/01 10:48:16;;;;;;;5.82;2.80;;;;;;;15.20;58.63;100787.94;4996348;28;20046;-62
2023/01/01 10:50:49;;;;;;;6.45;2.75;;;;;;;15.22;58.50;100808.19;4994444;28;20494;-63
2023/01/01 10:53:27;;;;;;;5.55;2.63;;;;;;;15.23;58.44;100778.06;4990931;28;20586;-60
2023/01/01 10:56:07;;;;;;;6.38;3.08;;;;;;;15.28;59.04;100783.88;4984971;28;20522;-62
2023/01/01 10:58:36;;;;;;;11.02;3.47;;;;;;;15.34;58.62;100794.84;4992402;28;20062;-62
2023/01/01 11:01:06;;;;;;;6.07;3.00;;;;;;;15.41;59.38;100772.19;4979521;28;20054;-64
2023/01/01 11:03:34;;;;;;;9.32;4.05;;;;;;;15.48;58.97;100779.69;4972732;28;20709;-63
2023/01/01 11:06:05;;;;;;;7.20;2.65;;;;;;;15.52;58.87;100786.44;4971384;28;20054;-63
2023/01/01 11:08:34;;;;;;;4.45;2.83;;;;;;;15.53;58.16;100786.31;4982606;28;20076;-62
2023/01/01 11:11:02;;;;;;;4.28;2.60;;;;;;;15.52;58.64;100813.81;4989704;28;20061;-63
2023/01/01 11:13:30;;;;;;;10.30;3.30;;;;;;;15.51;58.72;100819.25;4974652;28;20057;-64
2023/01/01 11:15:58;;;;;;;6.03;2.47;;;;;;;15.56;57.32;100803.81;4981479;28;20041;-63
2023/01/01 11:18:34;;;;;;;6.88;2.50;;;;;;;15.55;58.28;100821.53;4989718;28;20050;-65
2023/01/01 11:21:03;;;;;;;7.07;2.65;;;;;;;15.51;57.69;100820.09;4996068;28;20192;-65
2023/01/01 11:23:38;;;;;;;5.93;2.70;;;;;;;15.52;57.76;100827.06;4972627;28;20093;-67
2023/01/01 11:26:19;;;;;;;6.78;2.83;;;;;;;15.46;57.48;100827.56;4990116;28;20256;-62
2023/01/01 11:29:01;;;;;;;5.32;2.42;;;;;;;15.49;57.81;100821.16;4995428;28;20121;-66
2023/01/01 11:31:34;;;;;;;8.68;2.75;;;;;;;15.43;57.10;100833.94;4997581;28;20061;-61
2023/01/01 11:34:02;;;;;;;10.70;3.15;;;;;;;15.40;57.01;100807.66;4986823;28;20133;-63
2023/01/01 11:36:33;;;;;;;7.32;2.20;;;;;;;15.41;57.19;100805.84;4959425;28;20054;-62
2023/01/01 11:39:26;;;;;;;4.13;2.17;;;;;;;15.41;57.25;100827.91;4990687;28;20842;-61
2023/01/01 11:41:55;;;;;;;7.30;2.70;;;;;;;15.42;57.78;100826.09;4981726;28;20088;-61